< < Back
Terminal Aerodrome Forecast


Current Version              Previous Versions:   1  2  3  4  5  6  7  8  9  

Terminal Aerodrome Forecast

283
FTUS42 KFFC 232328
TAFFTY
TAF
KFTY 232328Z 2400/2424 05007KT P6SM FEW035 SCT080
     FM240200 VRB03KT P6SM SCT150 BKN250
     FM241500 25005KT P6SM SCT040
     FM241800 21007KT P6SM VCSH SCT050 PROB30 2418/2424 4SM TSRA
      BKN040CB=

Latest METAR

464
SAUS70 KWBC 241000 RRB
MTRFTY
METAR KFTY 240953Z 00000KT 9SM CLR 23/22 A3003 RMK AO2 SLP160
T02280217


USA.gov is the U.S. government's official web portal to all federal, state and local government web resources and services.